createdAt,value
2022-08-10T00:01:53.568Z,3.50
2022-08-10T00:04:24.831Z,3.33
2022-08-10T00:06:54.344Z,3.42
2022-08-10T00:09:25.414Z,3.10
2022-08-10T00:11:54.321Z,3.30
2022-08-10T00:14:22.764Z,3.22
2022-08-10T00:16:53.364Z,3.75
2022-08-10T00:19:21.971Z,3.00
2022-08-10T00:21:51.077Z,3.45
2022-08-10T00:24:20.879Z,3.47
2022-08-10T00:27:50.068Z,3.85
2022-08-10T00:29:40.062Z,3.50
2022-08-10T00:32:09.302Z,3.33
2022-08-10T00:34:37.522Z,3.78
2022-08-10T00:37:06.189Z,3.72
2022-08-10T00:39:36.345Z,3.60
2022-08-10T00:42:10.835Z,3.50
2022-08-10T00:44:40.184Z,3.60
2022-08-10T00:47:35.420Z,3.53
2022-08-10T00:49:59.105Z,3.75
2022-08-10T00:52:29.107Z,3.25
2022-08-10T00:54:58.144Z,3.50
2022-08-10T00:57:28.942Z,3.73
2022-08-10T00:59:59.787Z,3.55
2022-08-10T01:02:31.036Z,3.63
2022-08-10T01:05:02.515Z,4.00
2022-08-10T01:07:58.344Z,4.27
2022-08-10T01:10:42.960Z,4.40
2022-08-10T01:13:23.746Z,4.43
2022-08-10T01:16:01.345Z,4.38
2022-08-10T01:18:41.672Z,3.90
2022-08-10T01:21:34.793Z,4.03
2022-08-10T01:24:26.457Z,3.47
2022-08-10T01:27:17.277Z,3.67
2022-08-10T01:30:08.125Z,3.30
2022-08-10T01:32:48.344Z,2.70
2022-08-10T01:35:23.892Z,3.40
2022-08-10T01:38:02.270Z,3.37
2022-08-10T01:40:34.252Z,3.30
2022-08-10T01:43:08.090Z,3.63
2022-08-10T01:45:44.848Z,3.47
2022-08-10T01:48:31.910Z,3.80
2022-08-10T01:51:06.426Z,3.53
2022-08-10T01:53:41.750Z,3.43
2022-08-10T01:56:12.526Z,3.40
2022-08-10T01:58:42.333Z,3.10
2022-08-10T02:01:17.364Z,2.97
2022-08-10T02:04:04.045Z,3.57
2022-08-10T02:06:39.154Z,3.10
2022-08-10T02:09:09.559Z,3.37
2022-08-10T02:11:55.847Z,3.37
2022-08-10T02:14:33.599Z,3.30
2022-08-10T02:17:08.017Z,3.27
2022-08-10T02:19:40.002Z,3.40
2022-08-10T02:22:36.729Z,3.67
2022-08-10T02:25:02.421Z,3.20
2022-08-10T02:27:31.322Z,3.33
2022-08-10T02:30:00.576Z,3.50
2022-08-10T02:32:38.162Z,3.03
2022-08-10T02:35:18.666Z,3.07
2022-08-10T02:37:52.715Z,3.40
2022-08-10T02:45:01.996Z,3.37
2022-08-10T02:45:18.409Z,3.13
2022-08-10T02:46:18.241Z,3.20
2022-08-10T02:48:57.092Z,3.40
2022-08-10T02:52:06.695Z,3.23
2022-08-10T02:54:25.871Z,3.50
2022-08-10T02:56:58.635Z,3.20
2022-08-10T02:59:40.074Z,3.13
2022-08-10T03:02:12.515Z,3.07
2022-08-10T03:04:55.138Z,3.27
2022-08-10T03:07:42.857Z,3.13
2022-08-10T03:10:17.217Z,3.00
2022-08-10T03:12:50.680Z,3.30
2022-08-10T03:15:22.142Z,3.23
2022-08-10T03:17:57.389Z,3.00
2022-08-10T03:20:37.651Z,3.07
2022-08-10T03:23:11.647Z,3.30
2022-08-10T03:25:41.218Z,2.90
2022-08-10T03:28:23.670Z,2.80
2022-08-10T03:30:54.045Z,3.17
2022-08-10T03:33:23.628Z,3.40
2022-08-10T03:36:40.112Z,3.33
2022-08-10T03:38:43.784Z,3.50
2022-08-10T03:41:16.082Z,3.10
2022-08-10T03:43:52.017Z,3.30
2022-08-10T03:46:23.526Z,3.43
2022-08-10T03:48:55.598Z,3.20
2022-08-10T03:51:27.870Z,3.17
2022-08-10T03:54:04.839Z,3.10
2022-08-10T03:56:39.948Z,3.27
2022-08-10T03:59:10.395Z,3.10
2022-08-10T04:02:43.754Z,3.43
2022-08-10T04:04:27.539Z,3.03
2022-08-10T04:07:02.152Z,2.77
2022-08-10T04:09:53.921Z,2.93
2022-08-10T04:12:20.819Z,3.03
2022-08-10T04:14:51.910Z,3.40
2022-08-10T04:18:01.125Z,3.60
2022-08-10T04:20:20.634Z,3.10
2022-08-10T04:22:53.673Z,3.50
2022-08-10T04:25:25.462Z,3.77
2022-08-10T04:27:55.399Z,3.60
2022-08-10T04:30:27.917Z,3.87
2022-08-10T04:32:57.975Z,3.23
2022-08-10T04:35:29.318Z,3.40
2022-08-10T04:38:00.673Z,3.37
2022-08-10T04:40:31.049Z,3.13
2022-08-10T04:43:11.839Z,3.40
2022-08-10T04:45:49.964Z,3.27
2022-08-10T04:48:42.243Z,3.00
2022-08-10T04:51:15.417Z,3.20
2022-08-10T04:54:06.124Z,3.40
2022-08-10T04:56:37.113Z,3.13
2022-08-10T04:59:06.702Z,2.90
2022-08-10T05:02:21.393Z,3.10
2022-08-10T05:04:35.955Z,3.17
2022-08-10T05:07:08.582Z,3.40
2022-08-10T05:10:01.255Z,3.00
2022-08-10T05:12:27.551Z,3.33
2022-08-10T05:14:56.168Z,3.00
2022-08-10T05:17:26.193Z,3.57
2022-08-10T05:20:01.763Z,3.50
2022-08-10T05:22:33.607Z,2.67
2022-08-10T05:25:03.728Z,3.30
2022-08-10T05:27:33.789Z,3.30
2022-08-10T05:30:03.635Z,3.40
2022-08-10T05:32:32.930Z,3.20
2022-08-10T05:35:22.101Z,3.40
2022-08-10T05:38:10.428Z,2.93
2022-08-10T05:40:46.820Z,2.90
2022-08-10T05:43:18.349Z,3.20
2022-08-10T05:46:18.904Z,3.10
2022-08-10T05:48:55.411Z,3.10
2022-08-10T05:51:27.847Z,3.07
2022-08-10T05:54:03.022Z,3.03
2022-08-10T05:56:56.844Z,3.77
2022-08-10T06:00:11.182Z,2.97
2022-08-10T06:02:41.136Z,3.00
2022-08-10T06:05:11.632Z,3.20
2022-08-10T06:07:44.231Z,3.17
2022-08-10T06:10:31.478Z,2.60
2022-08-10T06:13:30.137Z,2.83
2022-08-10T06:16:06.108Z,3.30
2022-08-10T06:18:35.111Z,3.00
2022-08-10T06:21:03.931Z,3.00
2022-08-10T06:23:33.146Z,3.13
2022-08-10T06:26:09.553Z,2.80
2022-08-10T06:29:02.313Z,3.00
2022-08-10T06:31:47.105Z,3.20
2022-08-10T06:34:21.894Z,3.10
2022-08-10T06:36:51.411Z,2.97
2022-08-10T06:39:36.493Z,3.28
2022-08-10T06:42:16.183Z,3.10
2022-08-10T06:45:12.353Z,3.13
2022-08-10T06:47:45.277Z,3.20
2022-08-10T06:50:45.052Z,3.27
2022-08-10T06:53:13.389Z,3.05
2022-08-10T06:55:55.525Z,2.97
2022-08-10T06:58:30.723Z,3.00
2022-08-10T07:01:03.226Z,2.85
2022-08-10T07:03:38.337Z,2.90
2022-08-10T07:06:09.503Z,3.15
2022-08-10T07:08:39.550Z,2.97
2022-08-10T07:11:12.152Z,2.92
2022-08-10T07:14:17.034Z,3.10
2022-08-10T07:16:33.449Z,2.60
2022-08-10T07:19:03.829Z,2.70
2022-08-10T07:21:33.308Z,2.80
2022-08-10T07:24:05.214Z,2.70
2022-08-10T07:26:35.243Z,2.92
2022-08-10T07:29:05.754Z,2.83
2022-08-10T07:31:56.907Z,3.10
2022-08-10T07:34:30.117Z,2.83
2022-08-10T07:37:02.606Z,2.92
2022-08-10T07:40:03.980Z,2.92
2022-08-10T07:42:26.181Z,2.85
2022-08-10T07:44:54.558Z,2.90
2022-08-10T07:47:46.232Z,2.90
2022-08-10T07:50:22.459Z,2.90
2022-08-10T07:52:54.923Z,2.53
2022-08-10T07:56:04.216Z,2.90
2022-08-10T07:58:13.052Z,2.60
2022-08-10T08:00:42.538Z,2.90
2022-08-10T08:03:15.296Z,2.78
2022-08-10T08:05:58.444Z,2.50
2022-08-10T08:08:32.430Z,2.70
2022-08-10T08:11:02.103Z,2.83
2022-08-10T08:13:32.296Z,3.05
2022-08-10T08:16:17.189Z,2.60
2022-08-10T08:19:25.546Z,2.10
2022-08-10T08:24:06.555Z,2.60
2022-08-10T08:24:34.858Z,2.58
2022-08-10T08:27:04.542Z,2.90
2022-08-10T08:29:36.115Z,3.10
2022-08-10T08:32:06.003Z,2.60
2022-08-10T08:34:39.164Z,2.35
2022-08-10T08:37:10.636Z,2.90
2022-08-10T08:39:44.160Z,3.10
2022-08-10T08:42:36.622Z,2.50
2022-08-10T08:45:20.169Z,2.80
2022-08-10T08:48:09.714Z,2.72
2022-08-10T08:50:57.365Z,2.63
2022-08-10T08:54:02.008Z,2.95
2022-08-10T08:56:41.073Z,4.40
2022-08-10T08:59:32.223Z,6.25
2022-08-10T09:02:19.915Z,6.47
2022-08-10T09:05:18.474Z,7.60
2022-08-10T09:08:12.563Z,2.30
2022-08-10T09:10:51.820Z,2.40
2022-08-10T09:13:29.571Z,2.28
2022-08-10T09:16:10.235Z,2.60
2022-08-10T09:18:49.804Z,2.67
2022-08-10T09:21:24.897Z,2.40
2022-08-10T09:24:06.428Z,2.40
2022-08-10T09:26:44.867Z,2.45
2022-08-10T09:29:17.236Z,2.17
2022-08-10T09:31:55.916Z,2.58
2022-08-10T09:36:24.400Z,2.65
2022-08-10T09:38:01.683Z,2.60
2022-08-10T09:41:03.072Z,2.40
2022-08-10T09:43:41.237Z,1.95
2022-08-10T09:46:20.297Z,2.33
2022-08-10T09:49:00.241Z,2.10
2022-08-10T09:51:46.776Z,2.67
2022-08-10T09:54:49.078Z,2.30
2022-08-10T09:57:51.744Z,2.47
2022-08-10T10:00:28.766Z,2.05
2022-08-10T10:03:10.189Z,2.28
2022-08-10T10:05:51.964Z,2.28
2022-08-10T10:08:29.473Z,2.00
2022-08-10T10:11:09.802Z,2.47
2022-08-10T10:14:04.373Z,2.22
2022-08-10T10:16:47.938Z,2.20
2022-08-10T10:19:40.009Z,2.20
2022-08-10T10:22:26.478Z,2.05
2022-08-10T10:25:20.807Z,2.08
2022-08-10T10:27:59.533Z,2.58
2022-08-10T10:30:36.777Z,2.00
2022-08-10T10:33:14.551Z,1.95
2022-08-10T10:35:49.876Z,1.90
2022-08-10T10:38:20.334Z,1.95
2022-08-10T10:40:54.589Z,1.67
2022-08-10T10:43:41.876Z,4.50
2022-08-10T10:46:24.255Z,2.03
2022-08-10T10:49:04.469Z,1.80
2022-08-10T10:51:36.042Z,2.00
2022-08-10T10:54:13.208Z,1.90
2022-08-10T10:56:56.910Z,1.98
2022-08-10T10:59:55.897Z,1.90
2022-08-10T11:02:40.076Z,2.00
2022-08-10T11:05:20.619Z,2.25
2022-08-10T11:07:57.022Z,2.00
2022-08-10T11:10:34.664Z,2.00
2022-08-10T11:14:25.929Z,2.25
2022-08-10T11:16:19.784Z,2.17
2022-08-10T11:19:15.875Z,2.30
2022-08-10T11:21:57.212Z,2.40
2022-08-10T11:24:47.038Z,2.10
2022-08-10T11:27:25.099Z,2.08
2022-08-10T11:30:04.098Z,2.10
2022-08-10T11:32:40.258Z,2.20
2022-08-10T11:35:20.324Z,2.20
2022-08-10T11:38:34.436Z,2.22
2022-08-10T11:41:05.584Z,2.00
2022-08-10T11:44:10.703Z,2.17
2022-08-10T11:46:46.301Z,2.30
2022-08-10T11:49:19.779Z,2.08
2022-08-10T11:51:54.136Z,2.15
2022-08-10T11:54:32.026Z,1.92
2022-08-10T11:57:02.796Z,1.70
2022-08-10T11:59:57.921Z,1.85
2022-08-10T12:02:33.279Z,1.90
2022-08-10T12:05:08.627Z,1.88
2022-08-10T12:09:23.996Z,2.00
2022-08-10T12:10:37.463Z,2.13
2022-08-10T12:13:13.105Z,2.05
2022-08-10T12:15:48.247Z,2.20
2022-08-10T12:18:31.186Z,2.10
2022-08-10T12:21:05.083Z,2.30
2022-08-10T12:23:44.193Z,2.20
2022-08-10T12:26:16.697Z,2.08
2022-08-10T12:28:52.107Z,1.85
2022-08-10T12:31:25.568Z,1.80
2022-08-10T12:34:07.048Z,1.88
2022-08-10T12:36:41.622Z,1.88
2022-08-10T12:39:20.075Z,2.13
2022-08-10T12:41:54.795Z,2.55
2022-08-10T12:44:35.708Z,2.33
2022-08-10T12:47:22.452Z,2.28
2022-08-10T12:50:29.300Z,2.30
2022-08-10T12:52:53.831Z,2.53
2022-08-10T12:55:25.233Z,2.40
2022-08-10T12:57:56.882Z,2.25
2022-08-10T13:00:32.343Z,3.10
2022-08-10T13:03:03.829Z,2.00
2022-08-10T13:06:00.340Z,2.10
2022-08-10T13:08:42.066Z,2.10
2022-08-10T13:11:18.436Z,1.92
2022-08-10T13:14:10.579Z,2.20
2022-08-10T13:16:42.530Z,2.33
2022-08-10T13:19:15.910Z,1.98
2022-08-10T13:21:45.434Z,2.17
2022-08-10T13:24:17.651Z,1.80
2022-08-10T13:27:25.319Z,2.20
2022-08-10T13:29:49.757Z,2.20
2022-08-10T13:32:23.686Z,2.20
2022-08-10T13:34:53.903Z,2.05
2022-08-10T13:37:26.896Z,2.10
2022-08-10T13:40:00.430Z,2.38
2022-08-10T13:42:37.186Z,2.20
2022-08-10T13:45:12.562Z,2.35
2022-08-10T13:47:48.680Z,2.10
2022-08-10T13:50:33.359Z,2.03
2022-08-10T13:53:13.934Z,2.20
2022-08-10T13:55:53.336Z,1.95
2022-08-10T13:58:28.176Z,2.30
2022-08-10T14:01:01.761Z,2.00
2022-08-10T14:03:37.625Z,2.05
2022-08-10T14:06:10.070Z,2.40
2022-08-10T14:08:41.453Z,2.25
2022-08-10T14:11:16.005Z,2.17
2022-08-10T14:13:54.983Z,1.80
2022-08-10T14:16:24.869Z,2.22
2022-08-10T14:18:56.381Z,1.98
2022-08-10T14:21:25.935Z,2.42
2022-08-10T14:23:54.500Z,2.00
2022-08-10T14:26:26.539Z,2.35
2022-08-10T14:29:00.358Z,2.10
2022-08-10T14:31:33.806Z,2.38
2022-08-10T14:34:08.750Z,2.25
2022-08-10T14:36:42.465Z,2.10
2022-08-10T14:39:16.797Z,2.33
2022-08-10T14:42:04.455Z,2.10
2022-08-10T14:44:48.926Z,1.80
2022-08-10T14:47:52.782Z,2.10
2022-08-10T14:50:32.592Z,2.20
2022-08-10T14:53:09.478Z,2.15
2022-08-10T14:55:57.530Z,1.90
2022-08-10T14:58:31.395Z,2.13
2022-08-10T15:01:02.674Z,2.13
2022-08-10T15:03:59.491Z,2.00
2022-08-10T15:06:31.001Z,2.30
2022-08-10T15:09:12.218Z,2.20
2022-08-10T15:12:15.253Z,2.33
2022-08-10T15:14:43.311Z,2.55
2022-08-10T15:17:18.180Z,2.50
2022-08-10T15:20:04.463Z,2.30
2022-08-10T15:22:40.443Z,2.33
2022-08-10T15:25:19.041Z,2.30
2022-08-10T15:27:55.701Z,2.40
2022-08-10T15:30:32.409Z,2.60
2022-08-10T15:33:57.045Z,2.80
2022-08-10T15:36:34.733Z,2.65
2022-08-10T15:39:16.510Z,2.60
2022-08-10T15:42:02.206Z,2.20
2022-08-10T15:44:38.894Z,2.00
2022-08-10T15:47:11.198Z,2.63
2022-08-10T15:49:53.191Z,2.13
2022-08-10T15:52:39.627Z,2.20
2022-08-10T15:55:43.646Z,1.98
2022-08-10T15:58:14.694Z,1.92
2022-08-10T16:00:51.561Z,2.30
2022-08-10T16:03:27.725Z,2.22
2022-08-10T16:06:03.373Z,2.05
2022-08-10T16:08:56.355Z,2.22
2022-08-10T16:11:38.161Z,2.90
2022-08-10T16:14:19.985Z,2.22
2022-08-10T16:16:54.906Z,1.90
2022-08-10T16:19:27.256Z,2.05
2022-08-10T16:22:36.433Z,2.03
2022-08-10T16:24:54.032Z,2.55
2022-08-10T16:27:29.268Z,2.05
2022-08-10T16:30:01.086Z,2.08
2022-08-10T16:32:34.175Z,1.77
2022-08-10T16:35:09.144Z,1.88
2022-08-10T16:37:56.712Z,2.20
2022-08-10T16:40:29.862Z,2.30
2022-08-10T16:43:00.644Z,2.30
2022-08-10T16:45:39.005Z,2.30
2022-08-10T16:48:09.440Z,1.92
2022-08-10T16:50:42.247Z,2.25
2022-08-10T16:53:17.391Z,2.38
2022-08-10T16:55:50.728Z,2.00
2022-08-10T16:58:25.146Z,2.20
2022-08-10T17:00:54.754Z,2.30
2022-08-10T17:04:08.255Z,2.20
2022-08-10T17:06:26.283Z,2.13
2022-08-10T17:08:59.886Z,2.50
2022-08-10T17:11:32.108Z,2.13
2022-08-10T17:14:02.958Z,2.35
2022-08-10T17:16:38.803Z,2.15
2022-08-10T17:19:14.076Z,1.90
2022-08-10T17:21:51.786Z,1.90
2022-08-10T17:24:25.751Z,2.05
2022-08-10T17:26:57.845Z,2.50
2022-08-10T17:29:58.200Z,2.47
2022-08-10T17:32:28.838Z,2.22
2022-08-10T17:35:00.617Z,2.30
2022-08-10T17:37:35.446Z,2.40
2022-08-10T17:40:09.683Z,2.80
2022-08-10T17:42:41.618Z,2.30
2022-08-10T17:45:20.975Z,2.28
2022-08-10T17:48:08.358Z,2.13
2022-08-10T17:50:43.274Z,2.70
2022-08-10T17:53:17.777Z,2.15
2022-08-10T17:55:50.265Z,2.45
2022-08-10T17:58:22.167Z,2.60
2022-08-10T18:00:56.909Z,2.47
2022-08-10T18:03:46.923Z,2.50
2022-08-10T18:06:17.243Z,1.92
2022-08-10T18:08:52.629Z,2.10
2022-08-10T18:11:25.519Z,2.15
2022-08-10T18:13:57.664Z,2.30
2022-08-10T18:16:30.504Z,2.53
2022-08-10T18:19:04.438Z,2.35
2022-08-10T18:21:34.397Z,2.17
2022-08-10T18:24:14.157Z,2.20
2022-08-10T18:26:52.349Z,2.20
2022-08-10T18:29:26.062Z,2.22
2022-08-10T18:32:00.578Z,2.00
2022-08-10T18:34:33.827Z,2.00
2022-08-10T18:37:04.953Z,2.58
2022-08-10T18:39:37.965Z,2.58
2022-08-10T18:42:16.070Z,2.55
2022-08-10T18:44:50.457Z,2.22
2022-08-10T18:47:36.945Z,2.53
2022-08-10T18:50:10.522Z,2.40
2022-08-10T18:52:43.996Z,2.50
2022-08-10T18:55:24.615Z,2.60
2022-08-10T19:01:43.924Z,2.97
2022-08-10T19:04:30.324Z,2.55
2022-08-10T19:07:29.218Z,2.50
2022-08-10T19:10:18.122Z,2.42
2022-08-10T19:12:54.874Z,3.35
2022-08-10T19:15:31.480Z,3.00
2022-08-10T19:18:19.028Z,2.88
2022-08-10T19:20:52.998Z,3.13
2022-08-10T19:23:43.714Z,3.17
2022-08-10T19:26:43.683Z,2.50
2022-08-10T19:30:09.895Z,2.70
2022-08-10T19:32:31.626Z,2.55
2022-08-10T19:35:12.549Z,3.08
2022-08-10T19:38:00.658Z,2.55
2022-08-10T19:40:44.358Z,2.42
2022-08-10T19:43:30.967Z,2.80
2022-08-10T19:46:19.526Z,2.75
2022-08-10T19:48:56.798Z,2.72
2022-08-10T19:51:30.284Z,2.78
2022-08-10T19:54:04.962Z,3.20
2022-08-10T19:56:45.539Z,2.50
2022-08-10T20:00:17.613Z,2.60
2022-08-10T20:02:23.545Z,2.25
2022-08-10T20:05:04.169Z,2.58
2022-08-10T20:07:45.067Z,2.42
2022-08-10T20:10:19.349Z,2.38
2022-08-10T20:12:57.540Z,2.53
2022-08-10T20:15:42.100Z,2.60
2022-08-10T20:18:14.367Z,2.50
2022-08-10T20:20:50.760Z,3.13
2022-08-10T20:23:25.618Z,2.35
2022-08-10T20:25:58.224Z,2.50
2022-08-10T20:28:39.560Z,3.08
2022-08-10T20:31:17.020Z,2.35
2022-08-10T20:34:01.291Z,2.42
2022-08-10T20:36:33.806Z,2.90
2022-08-10T20:39:18.205Z,2.50
2022-08-10T20:41:58.804Z,2.42
2022-08-10T20:44:39.236Z,2.60
2022-08-10T20:47:13.216Z,2.53
2022-08-10T20:49:49.166Z,2.50
2022-08-10T20:52:18.605Z,3.40
2022-08-10T20:54:52.499Z,2.88
2022-08-10T20:57:56.929Z,2.90
2022-08-10T21:00:37.975Z,2.95
2022-08-10T21:03:31.305Z,2.60
2022-08-10T21:06:41.138Z,2.78
2022-08-10T21:09:21.801Z,2.65
2022-08-10T21:12:12.971Z,3.10
2022-08-10T21:14:51.798Z,3.90
2022-08-10T21:17:39.362Z,4.10
2022-08-10T21:20:31.084Z,2.95
2022-08-10T21:23:05.284Z,3.60
2022-08-10T21:25:45.513Z,4.90
2022-08-10T21:28:38.614Z,4.72
2022-08-10T21:31:21.818Z,3.72
2022-08-10T21:34:03.826Z,4.68
2022-08-10T21:36:33.993Z,3.17
2022-08-10T21:39:11.314Z,3.17
2022-08-10T21:42:04.832Z,3.72
2022-08-10T21:45:09.023Z,2.70
2022-08-10T21:48:17.115Z,3.60
2022-08-10T21:51:16.450Z,3.08
2022-08-10T21:54:21.725Z,3.00
2022-08-10T21:57:26.578Z,4.03
2022-08-10T22:00:19.588Z,2.90
2022-08-10T22:03:10.605Z,2.78
2022-08-10T22:05:58.701Z,2.70
2022-08-10T22:08:54.067Z,2.83
2022-08-10T22:11:43.475Z,2.90
2022-08-10T22:14:33.532Z,2.78
2022-08-10T22:18:01.103Z,2.67
2022-08-10T22:20:38.522Z,2.88
2022-08-10T22:23:38.540Z,2.72
2022-08-10T22:26:38.133Z,2.97
2022-08-10T22:29:42.201Z,2.92
2022-08-10T22:32:41.245Z,2.53
2022-08-10T22:36:01.297Z,2.90
2022-08-10T22:39:02.600Z,2.90
2022-08-10T22:41:59.939Z,3.20
2022-08-10T22:44:48.175Z,3.25
2022-08-10T22:47:38.707Z,3.35
2022-08-10T22:50:10.382Z,2.70
2022-08-10T22:53:02.039Z,3.00
2022-08-10T22:55:53.061Z,2.83
2022-08-10T22:58:38.964Z,2.75
2022-08-10T23:01:14.909Z,2.67
2022-08-10T23:03:52.831Z,3.30
2022-08-10T23:06:28.000Z,2.97
2022-08-10T23:09:01.943Z,2.75
2022-08-10T23:11:35.255Z,3.25
2022-08-10T23:14:06.469Z,2.40
2022-08-10T23:16:59.237Z,2.95
2022-08-10T23:19:31.940Z,3.00
2022-08-10T23:22:07.405Z,2.92
2022-08-10T23:24:40.358Z,3.03
2022-08-10T23:27:38.265Z,3.00
2022-08-10T23:30:11.031Z,3.13
2022-08-10T23:32:47.268Z,3.25
2022-08-10T23:36:31.401Z,2.95
2022-08-10T23:38:09.385Z,3.88
2022-08-10T23:40:38.455Z,3.90
2022-08-10T23:43:08.727Z,2.78
2022-08-10T23:45:52.985Z,2.72
2022-08-10T23:48:26.378Z,3.10
2022-08-10T23:50:59.804Z,2.60
2022-08-10T23:53:31.655Z,2.70
2022-08-10T23:56:04.443Z,2.78
2022-08-10T23:58:43.555Z,3.30
